Winigan, MO (63566)

4:36 AM CDT on August 05, 2015 (GMT -0500)
Mystic Plains COA | | Change Station
CLOSE
Current Station
Personal Weather Station
Location: Novinger, MO
Elevation: 984 ft
Nearby Weather Stations
Active Advisory: Flood Warning

Elev 984 ft 40.12 °N, 92.79 °W | Updated 21 seconds ago

Partly Cloudy
Partly Cloudy
64.8 °F
Feels Like 64.8 °F
N
2.0
Wind Variable Wind from SE
Gusts 4.0 mph

Today
High -- | Low -- °F
--% Chance of Precip.
Yesterday
High -- | Low -- °F
Precip. -- in
6:13 AM 8:21 PM
Waning Gibbous, 69% visible
Pressure 30.02 in
Visibility 10.0 miles
Clouds Clear
Dew Point 64 °F
Humidity 96%
Rainfall 0.00 in
Snow Depth Not available.
UV 0.0 out of 12
Pollen 5.90 out of 12
Air Quality Not available.
Flu Activity Not available.
METAR KIRK 050855Z AUTO 16005KT 10SM CLR 18/17 A3002 RMK AO2 SLP165 T01780167 55001 $

More Conditions Fewer Conditions

Pressure 30.02 in
Visibility 10.0 miles
Clouds Clear
Dew Point 64 °F
Humidity 96%
Rainfall 0.00 in
Snow Depth Not available.
UV 0.0 out of 12
Pollen 5.90 out of 12
Air Quality Not available.
Flu Activity Not available.
METAR KIRK 050855Z AUTO 16005KT 10SM CLR 18/17 A3002 RMK AO2 SLP165 T01780167 55001 $

More Conditions Fewer Conditions

10-Day Weather Forecast

×

Almanac

Astronomy

Aug. 05, 2015 Rise Set
Actual Time
Civil Twilight
Nautical Twilight
Astronomical Twilight
Moon
Length of Visible Light
Length of Day
Tomorrow will be .
, % of the Moon is Illuminated

Today's Extremes

State Highs State Lows

Community

WunderPhotos

Upload Photos

1,844,113 photos uploaded!

WunderBlogs® & News

Nearby

Air Quality

  Air Quality AQ Index Pollutant
Not available.

Snow Depth

Station Depth Elevation

Earthquake Activity

City Distance Mag. Time & Date
Minimum magnitude displayed is 2.5.

Coastal Water Temperatures

Place Temperature

Stations

Nearby Weather Stations

Station Location Temp. Windchill Dew Point Humidity Wind Precip. Elev Updated Type
                   
Flood Warning
Statement as of 10:05 PM CDT on August 04, 2015

The Flood Warning continues for
the Grand River near Sumner.
* Until Thursday afternoon.
* At 9:45 PM Tuesday the stage was 27.1 feet.
* Flood stage is 26.0 feet.
* Minor flooding is occurring and minor flooding is forecast.
* Forecast... the river will continue rising to near 27.3 feet by
early Wednesday morning. The river will fall below flood stage
early Wednesday afternoon.
* At 26.0 feet... rural land adjacent to the river is flooded.
* At 23.0 feet... bottomland 1 to 2 miles south of the gage begins to
flood.

                       Latest
location fs stage day/time forecast

Grand River
Sumner 26 27.1 Tue 10 PM 27.3 early Wednesday
morning


lat... Lon 3967 9343 3978 9343 3970 9327 3953 9321 3951 9330